createdAt,value
2017-12-23T00:00:41.375Z,103.93
2017-12-23T00:03:09.633Z,102.63
2017-12-23T00:05:37.919Z,97.67
2017-12-23T00:08:06.200Z,94.17
2017-12-23T00:10:43.321Z,103.93
2017-12-23T00:13:10.831Z,94.27
2017-12-23T00:15:39.118Z,91.80
2017-12-23T00:18:07.381Z,100.17
2017-12-23T00:20:35.646Z,93.63
2017-12-23T00:23:03.942Z,87.83
2017-12-23T00:25:31.449Z,90.30
2017-12-23T00:27:58.970Z,90.33
2017-12-23T00:30:26.521Z,83.67
2017-12-23T00:32:54.029Z,92.10
2017-12-23T00:35:21.560Z,86.03
2017-12-23T00:37:49.058Z,90.40
2017-12-23T00:40:16.559Z,76.07
2017-12-23T00:42:44.859Z,84.80
2017-12-23T00:45:12.358Z,87.23
2017-12-23T00:47:39.901Z,79.10
2017-12-23T00:50:07.405Z,81.30
2017-12-23T00:52:35.682Z,73.33
2017-12-23T00:55:03.993Z,73.40
2017-12-23T00:57:31.512Z,80.27
2017-12-23T00:59:59.813Z,72.40
2017-12-23T01:02:27.322Z,73.10
2017-12-23T01:04:54.834Z,76.57
2017-12-23T01:07:22.351Z,95.23
2017-12-23T01:09:49.874Z,78.97
2017-12-23T01:12:17.480Z,60.87
2017-12-23T01:14:45.012Z,61.50
2017-12-23T01:17:12.518Z,62.93
2017-12-23T01:19:40.832Z,61.10
2017-12-23T01:22:08.335Z,60.47
2017-12-23T01:24:37.370Z,56.57
2017-12-23T01:27:04.879Z,50.30
2017-12-23T01:29:32.391Z,49.60
2017-12-23T01:31:59.931Z,47.80
2017-12-23T01:34:28.198Z,47.90
2017-12-23T01:36:56.491Z,50.20
2017-12-23T01:39:24.767Z,45.73
2017-12-23T01:41:53.048Z,49.47
2017-12-23T01:44:21.323Z,40.70
2017-12-23T01:46:49.586Z,38.30
2017-12-23T01:49:17.110Z,39.00
2017-12-23T01:51:44.602Z,36.43
2017-12-23T01:54:12.098Z,37.13
2017-12-23T01:56:39.610Z,33.07
2017-12-23T01:59:07.109Z,35.07
2017-12-23T02:01:35.389Z,30.47
2017-12-23T02:04:02.881Z,36.33
2017-12-23T02:06:30.382Z,39.00
2017-12-23T02:08:57.897Z,48.37
2017-12-23T02:11:25.400Z,38.17
2017-12-23T02:13:52.910Z,43.20
2017-12-23T02:16:20.402Z,40.70
2017-12-23T02:18:47.894Z,42.67
2017-12-23T02:21:16.174Z,48.53
2017-12-23T02:23:43.680Z,40.03
2017-12-23T02:26:11.217Z,42.70
2017-12-23T02:28:38.718Z,45.53
2017-12-23T02:31:06.222Z,46.20
2017-12-23T02:33:33.783Z,43.10
2017-12-23T02:36:01.293Z,41.33
2017-12-23T02:38:28.809Z,51.03
2017-12-23T02:40:56.301Z,44.33
2017-12-23T02:43:23.798Z,47.80
2017-12-23T02:45:52.073Z,43.93
2017-12-23T02:48:20.346Z,43.57
2017-12-23T02:50:48.645Z,48.97
2017-12-23T02:53:16.160Z,51.53
2017-12-23T02:55:43.666Z,46.37
2017-12-23T02:58:11.188Z,45.00
2017-12-23T03:00:38.684Z,47.77
2017-12-23T03:03:06.203Z,54.73
2017-12-23T03:05:33.702Z,49.27
2017-12-23T03:08:01.205Z,50.37
2017-12-23T03:10:28.722Z,50.77
2017-12-23T03:12:56.222Z,54.00
2017-12-23T03:15:24.225Z,58.07
2017-12-23T03:17:52.495Z,53.90
2017-12-23T03:20:20.757Z,56.87
2017-12-23T03:22:48.287Z,55.10
2017-12-23T03:25:15.789Z,55.90
2017-12-23T03:27:44.081Z,60.13
2017-12-23T03:30:12.351Z,51.77
2017-12-23T03:32:40.610Z,50.17
2017-12-23T03:35:08.117Z,50.93
2017-12-23T03:37:35.617Z,46.73
2017-12-23T03:40:03.145Z,48.60
2017-12-23T03:42:30.637Z,50.40
2017-12-23T03:44:58.126Z,51.47
2017-12-23T03:47:26.410Z,46.27
2017-12-23T03:49:53.912Z,47.17
2017-12-23T03:52:21.425Z,51.23
2017-12-23T03:54:48.918Z,56.87
2017-12-23T03:57:16.411Z,54.90
2017-12-23T03:59:43.975Z,54.17
2017-12-23T04:02:11.441Z,57.53
2017-12-23T04:04:39.724Z,59.97
2017-12-23T04:07:07.994Z,54.03
2017-12-23T04:09:36.253Z,49.43
2017-12-23T04:12:03.760Z,57.80
2017-12-23T04:14:31.260Z,55.50
2017-12-23T04:16:58.782Z,58.83
2017-12-23T04:19:26.285Z,67.70
2017-12-23T04:21:53.799Z,57.30
2017-12-23T04:24:21.305Z,60.77
2017-12-23T04:26:48.798Z,55.00
2017-12-23T04:29:16.314Z,56.10
2017-12-23T04:31:43.806Z,51.10
2017-12-23T04:34:12.066Z,48.40
2017-12-23T04:36:40.343Z,50.00
2017-12-23T04:39:08.605Z,57.70
2017-12-23T04:41:36.120Z,49.73
2017-12-23T04:44:03.613Z,48.87
2017-12-23T04:46:31.105Z,45.40
2017-12-23T04:48:59.381Z,46.03
2017-12-23T04:51:27.654Z,42.60
2017-12-23T04:53:55.173Z,38.50
2017-12-23T04:56:22.674Z,40.10
2017-12-23T04:58:50.938Z,37.60
2017-12-23T05:01:19.209Z,38.67
2017-12-23T05:03:47.539Z,35.17
2017-12-23T05:06:15.053Z,40.03
2017-12-23T05:08:43.313Z,31.00
2017-12-23T05:11:10.806Z,35.93
2017-12-23T05:13:38.322Z,36.20
2017-12-23T05:16:05.826Z,35.70
2017-12-23T05:18:33.347Z,36.80
2017-12-23T05:21:00.853Z,37.83
2017-12-23T05:23:28.350Z,38.30
2017-12-23T05:25:55.858Z,35.30
2017-12-23T05:28:23.385Z,37.83
2017-12-23T05:30:50.914Z,38.70
2017-12-23T05:33:18.409Z,37.90
2017-12-23T05:35:46.724Z,36.30
2017-12-23T05:38:14.234Z,37.57
2017-12-23T05:40:41.730Z,44.67
2017-12-23T05:43:09.250Z,38.80
2017-12-23T05:45:36.745Z,42.53
2017-12-23T05:48:04.242Z,36.37
2017-12-23T05:50:31.754Z,39.47
2017-12-23T05:53:00.022Z,40.40
2017-12-23T05:55:28.298Z,41.60
2017-12-23T05:57:56.563Z,33.93
2017-12-23T06:00:24.830Z,34.23
2017-12-23T06:02:52.341Z,37.37
2017-12-23T06:05:19.842Z,38.33
2017-12-23T06:07:47.394Z,36.70
2017-12-23T06:10:14.902Z,37.20
2017-12-23T06:12:42.397Z,35.77
2017-12-23T06:15:09.902Z,36.57
2017-12-23T06:17:38.165Z,37.00
2017-12-23T06:20:05.668Z,34.23
2017-12-23T06:22:33.169Z,37.20
2017-12-23T06:25:00.654Z,40.37
2017-12-23T06:27:28.926Z,36.40
2017-12-23T06:29:57.201Z,34.37
2017-12-23T06:32:25.486Z,35.63
2017-12-23T06:34:53.752Z,36.43
2017-12-23T06:37:21.248Z,35.60
2017-12-23T06:39:48.752Z,33.00
2017-12-23T06:42:16.256Z,35.90
2017-12-23T06:44:43.795Z,33.17
2017-12-23T06:47:12.061Z,31.17
2017-12-23T06:49:39.561Z,34.33
2017-12-23T06:52:07.077Z,29.77
2017-12-23T06:54:35.365Z,30.47
2017-12-23T06:57:03.642Z,30.80
2017-12-23T06:59:31.901Z,32.20
2017-12-23T07:01:59.404Z,29.03
2017-12-23T07:04:26.921Z,30.63
2017-12-23T07:06:54.417Z,29.80
2017-12-23T07:09:22.694Z,29.57
2017-12-23T07:11:50.193Z,29.60
2017-12-23T07:14:17.682Z,26.77
2017-12-23T07:16:45.960Z,32.27
2017-12-23T07:19:14.221Z,27.40
2017-12-23T07:21:41.751Z,40.23
2017-12-23T07:24:09.255Z,33.57
2017-12-23T07:26:37.522Z,33.07
2017-12-23T07:29:05.029Z,34.00
2017-12-23T07:31:32.518Z,28.43
2017-12-23T07:34:00.054Z,32.03
2017-12-23T07:36:27.547Z,33.13
2017-12-23T07:38:55.043Z,34.50
2017-12-23T07:41:23.325Z,29.13
2017-12-23T07:43:50.826Z,31.00
2017-12-23T07:46:18.341Z,31.60
2017-12-23T07:48:45.837Z,34.23
2017-12-23T07:51:13.334Z,30.00
2017-12-23T07:53:41.624Z,34.17
2017-12-23T07:56:09.919Z,37.03
2017-12-23T07:58:37.460Z,36.23
2017-12-23T08:01:05.734Z,33.87
2017-12-23T08:03:34.001Z,39.70
2017-12-23T08:06:01.507Z,34.20
2017-12-23T08:08:29.006Z,35.47
2017-12-23T08:10:56.535Z,36.80
2017-12-23T08:13:24.034Z,36.43
2017-12-23T08:15:52.306Z,40.67
2017-12-23T08:18:19.818Z,38.30
2017-12-23T08:20:47.317Z,38.60
2017-12-23T08:23:14.838Z,44.93
2017-12-23T08:25:42.341Z,38.90
2017-12-23T08:28:09.849Z,44.87
2017-12-23T08:30:37.358Z,43.33
2017-12-23T08:33:04.866Z,37.17
2017-12-23T08:35:32.398Z,39.60
2017-12-23T08:38:00.666Z,37.20
2017-12-23T08:40:28.954Z,39.03
2017-12-23T08:42:57.237Z,42.27
2017-12-23T08:45:25.507Z,38.03
2017-12-23T08:47:53.781Z,36.80
2017-12-23T08:50:22.115Z,35.20
2017-12-23T08:52:49.618Z,40.83
2017-12-23T08:55:17.898Z,39.13
2017-12-23T08:57:46.163Z,40.70
2017-12-23T09:00:14.449Z,37.17
2017-12-23T09:02:42.712Z,34.70
2017-12-23T09:05:10.206Z,34.97
2017-12-23T09:07:37.718Z,33.73
2017-12-23T09:10:05.217Z,32.67
2017-12-23T09:12:33.512Z,27.97
2017-12-23T09:15:01.072Z,32.37
2017-12-23T09:17:28.569Z,21.40
2017-12-23T09:22:17.289Z,23.20
2017-12-23T09:24:44.801Z,31.33
2017-12-23T09:27:12.295Z,28.03
2017-12-23T09:29:40.558Z,23.07
2017-12-23T09:32:08.834Z,28.37
2017-12-23T09:34:37.098Z,27.27
2017-12-23T09:37:04.676Z,20.10
2017-12-23T09:39:32.151Z,21.40
2017-12-23T09:41:59.649Z,26.73
2017-12-23T09:44:27.165Z,20.20
2017-12-23T09:46:54.712Z,15.63
2017-12-23T09:49:23.011Z,16.37
2017-12-23T09:51:50.521Z,16.20
2017-12-23T09:54:18.035Z,20.53
2017-12-23T09:56:45.543Z,16.27
2017-12-23T09:59:13.038Z,14.13
2017-12-23T10:01:41.318Z,17.47
2017-12-23T10:04:08.821Z,11.07
2017-12-23T10:06:36.350Z,13.60
2017-12-23T10:09:03.874Z,11.20
2017-12-23T10:11:32.138Z,12.30
2017-12-23T10:13:59.654Z,10.00
2017-12-23T10:16:27.146Z,11.67
2017-12-23T10:18:54.642Z,11.23
2017-12-23T10:21:22.921Z,10.97
2017-12-23T10:23:51.216Z,10.57
2017-12-23T10:26:18.733Z,10.60
2017-12-23T10:28:46.226Z,10.10
2017-12-23T10:31:13.726Z,10.93
2017-12-23T10:33:41.261Z,11.00
2017-12-23T10:36:08.773Z,10.23
2017-12-23T10:38:37.074Z,9.53
2017-12-23T10:41:04.563Z,9.97
2017-12-23T10:43:32.062Z,12.97
2017-12-23T10:45:59.576Z,11.40
2017-12-23T10:48:27.076Z,10.47
2017-12-23T10:50:54.609Z,11.37
2017-12-23T10:53:22.110Z,10.33
2017-12-23T10:55:50.362Z,10.60
2017-12-23T10:58:18.643Z,11.10
2017-12-23T11:00:46.142Z,10.13
2017-12-23T11:03:13.671Z,10.43
2017-12-23T11:05:41.171Z,10.80
2017-12-23T11:08:08.665Z,10.00
2017-12-23T11:10:36.192Z,9.33
2017-12-23T11:13:03.702Z,10.40
2017-12-23T11:15:31.341Z,10.63
2017-12-23T11:17:58.834Z,9.70
2017-12-23T11:20:27.118Z,9.77
2017-12-23T11:22:55.387Z,9.03
2017-12-23T11:25:23.658Z,9.77
2017-12-23T11:27:51.950Z,8.53
2017-12-23T11:30:19.457Z,7.73
2017-12-23T11:32:46.973Z,8.80
2017-12-23T11:35:14.501Z,7.90
2017-12-23T11:37:42.119Z,6.03
2017-12-23T11:40:09.675Z,4.40
2017-12-23T11:42:37.166Z,3.97
2017-12-23T11:45:04.695Z,3.00
2017-12-23T11:47:32.258Z,2.47
2017-12-23T11:49:59.758Z,2.93
2017-12-23T11:52:27.281Z,2.23
2017-12-23T11:54:54.774Z,2.20
2017-12-23T11:57:22.295Z,1.90
2017-12-23T11:59:49.790Z,1.50
2017-12-23T12:02:18.082Z,1.40
2017-12-23T12:04:46.364Z,1.13
2017-12-23T12:07:14.649Z,1.53
2017-12-23T12:09:42.923Z,2.53
2017-12-23T12:12:11.218Z,1.30
2017-12-23T12:14:38.766Z,1.30
2017-12-23T12:17:07.026Z,1.87
2017-12-23T12:19:35.302Z,2.03
2017-12-23T12:22:03.561Z,2.00
2017-12-23T12:24:31.104Z,2.20
2017-12-23T12:26:58.598Z,3.20
2017-12-23T12:29:26.858Z,2.37
2017-12-23T12:31:54.361Z,1.90
2017-12-23T12:34:21.845Z,2.57
2017-12-23T12:36:49.363Z,3.17
2017-12-23T12:39:17.630Z,2.33
2017-12-23T12:41:45.886Z,1.90
2017-12-23T12:44:13.404Z,1.57
2017-12-23T12:46:40.899Z,2.10
2017-12-23T12:49:08.429Z,1.67
2017-12-23T12:51:35.939Z,1.60
2017-12-23T12:54:04.265Z,1.40
2017-12-23T12:56:31.781Z,3.30
2017-12-23T12:59:00.046Z,1.23
2017-12-23T13:01:27.558Z,1.87
2017-12-23T13:03:55.046Z,2.20
2017-12-23T13:06:22.558Z,1.83
2017-12-23T13:08:50.063Z,1.60
2017-12-23T13:11:17.618Z,1.90
2017-12-23T13:13:45.149Z,1.90
2017-12-23T13:16:12.651Z,3.43
2017-12-23T13:18:41.028Z,2.70
2017-12-23T13:21:08.544Z,2.50
2017-12-23T13:23:36.049Z,2.50
2017-12-23T13:26:03.607Z,3.00
2017-12-23T13:28:31.101Z,3.07
2017-12-23T13:30:58.590Z,3.50
2017-12-23T13:33:26.098Z,6.63
2017-12-23T13:35:54.388Z,4.30
2017-12-23T13:38:22.661Z,4.20
2017-12-23T13:40:50.926Z,2.90
2017-12-23T13:43:19.199Z,2.87
2017-12-23T13:45:47.490Z,3.37
2017-12-23T13:48:15.759Z,3.00
2017-12-23T13:50:44.031Z,4.00
2017-12-23T13:53:11.518Z,4.80
2017-12-23T13:55:39.021Z,2.93
2017-12-23T13:58:06.521Z,4.63
2017-12-23T14:00:34.790Z,3.57
2017-12-23T14:03:03.086Z,3.13
2017-12-23T14:05:30.578Z,4.37
2017-12-23T14:07:58.076Z,3.67
2017-12-23T14:10:26.354Z,3.30
2017-12-23T14:12:53.849Z,2.37
2017-12-23T14:15:21.357Z,3.10
2017-12-23T14:17:48.849Z,3.50
2017-12-23T14:20:17.106Z,3.90
2017-12-23T14:22:44.610Z,3.63
2017-12-23T14:25:12.098Z,3.93
2017-12-23T14:27:39.610Z,3.57
2017-12-23T14:30:07.163Z,5.10
2017-12-23T14:32:35.422Z,4.67
2017-12-23T14:35:03.694Z,5.00
2017-12-23T14:37:31.185Z,4.60
2017-12-23T14:39:58.693Z,4.60
2017-12-23T14:42:26.177Z,3.80
2017-12-23T14:44:54.430Z,4.97
2017-12-23T14:47:21.942Z,4.60
2017-12-23T14:49:49.442Z,4.90
2017-12-23T14:52:16.973Z,4.33
2017-12-23T14:54:44.461Z,4.23
2017-12-23T14:57:11.953Z,3.50
2017-12-23T14:59:40.221Z,4.97
2017-12-23T15:02:08.494Z,3.17
2017-12-23T15:04:36.871Z,4.87
2017-12-23T15:07:04.361Z,4.57
2017-12-23T15:09:31.856Z,3.73
2017-12-23T15:11:59.357Z,4.03
2017-12-23T15:14:27.615Z,3.97
2017-12-23T15:16:55.131Z,3.10
2017-12-23T15:19:22.618Z,3.20
2017-12-23T15:21:50.115Z,4.67
2017-12-23T15:24:18.381Z,3.77
2017-12-23T15:26:46.637Z,4.13
2017-12-23T22:24:29.230Z,7.60
2017-12-23T22:26:57.521Z,6.83
2017-12-23T22:29:25.799Z,6.23
2017-12-23T22:31:53.286Z,7.47
2017-12-23T22:34:20.821Z,7.13
2017-12-23T22:36:48.395Z,8.63
2017-12-23T22:39:15.914Z,5.60
2017-12-23T22:41:43.442Z,10.63
2017-12-23T22:44:11.077Z,7.93
2017-12-23T22:46:38.569Z,7.70
2017-12-23T22:49:06.079Z,7.10
2017-12-23T22:51:33.565Z,7.20
2017-12-23T22:54:01.112Z,10.37
2017-12-23T22:56:28.630Z,6.60
2017-12-23T22:58:56.898Z,6.57
2017-12-23T23:01:24.410Z,9.23
2017-12-23T23:03:51.905Z,8.50
2017-12-23T23:06:19.426Z,7.17
2017-12-23T23:08:46.926Z,5.83
2017-12-23T23:11:14.425Z,11.00
2017-12-23T23:13:41.929Z,9.00
2017-12-23T23:16:09.417Z,6.53
2017-12-23T23:18:37.707Z,5.73
2017-12-23T23:21:05.979Z,11.73
2017-12-23T23:23:34.245Z,5.70
2017-12-23T23:26:01.757Z,7.40
2017-12-23T23:28:29.254Z,6.90
2017-12-23T23:30:56.797Z,10.63
2017-12-23T23:33:24.286Z,6.40
2017-12-23T23:35:52.563Z,26.27
2017-12-23T23:38:20.851Z,8.33
2017-12-23T23:40:49.105Z,6.63
2017-12-23T23:43:16.625Z,9.70
2017-12-23T23:45:44.121Z,6.63
2017-12-23T23:48:11.614Z,7.60
2017-12-23T23:50:39.125Z,6.03
2017-12-23T23:53:06.619Z,7.67
2017-12-23T23:55:34.892Z,8.37
2017-12-23T23:58:03.199Z,6.47
